createdAt,value
2023-01-19T00:00:51.599Z,10.20
2023-01-19T00:03:18.638Z,8.20
2023-01-19T00:05:46.427Z,7.20
2023-01-19T00:08:16.414Z,7.70
2023-01-19T00:10:45.039Z,9.90
2023-01-19T00:13:12.194Z,9.90
2023-01-19T00:15:39.363Z,9.50
2023-01-19T00:18:06.154Z,10.30
2023-01-19T00:20:32.965Z,10.80
2023-01-19T00:23:00.119Z,10.10
2023-01-19T00:25:27.059Z,9.40
2023-01-19T00:27:53.877Z,9.60
2023-01-19T00:30:20.762Z,9.60
2023-01-19T00:32:47.480Z,9.70
2023-01-19T00:35:14.354Z,10.20
2023-01-19T00:37:41.044Z,11.00
2023-01-19T00:40:08.865Z,11.20
2023-01-19T00:42:41.720Z,10.80
2023-01-19T00:45:09.753Z,10.40
2023-01-19T00:47:36.546Z,10.70
2023-01-19T00:50:03.350Z,10.00
2023-01-19T00:52:30.055Z,10.50
2023-01-19T00:54:56.742Z,10.00
2023-01-19T00:57:23.646Z,10.10
2023-01-19T00:59:50.368Z,12.20
2023-01-19T01:02:17.280Z,10.80
2023-01-19T01:04:44.238Z,8.90
2023-01-19T01:07:11.029Z,9.90
2023-01-19T01:09:37.727Z,10.40
2023-01-19T01:12:04.533Z,8.70
2023-01-19T01:14:32.951Z,9.20
2023-01-19T01:17:00.825Z,11.20
2023-01-19T01:19:27.621Z,11.00
2023-01-19T01:21:55.617Z,9.00
2023-01-19T01:24:22.406Z,9.00
2023-01-19T01:26:49.109Z,9.40
2023-01-19T01:29:15.830Z,9.50
2023-01-19T01:31:42.682Z,9.70
2023-01-19T01:34:09.615Z,9.30
2023-01-19T01:36:36.399Z,8.90
2023-01-19T01:39:03.205Z,9.10
2023-01-19T01:41:30.043Z,10.40
2023-01-19T01:44:01.890Z,9.00
2023-01-19T01:46:30.481Z,8.50
2023-01-19T01:49:03.608Z,8.10
2023-01-19T01:51:37.305Z,9.20
2023-01-19T01:54:32.268Z,7.10
2023-01-19T01:57:03.998Z,8.70
2023-01-19T01:59:34.939Z,8.00
2023-01-19T02:02:25.625Z,8.80
2023-01-19T02:04:55.777Z,8.40
2023-01-19T02:07:49.024Z,8.90
2023-01-19T02:10:34.578Z,10.70
2023-01-19T02:13:20.311Z,9.50
2023-01-19T02:15:56.184Z,9.20
2023-01-19T02:18:23.988Z,9.30
2023-01-19T02:20:54.365Z,8.30
2023-01-19T02:23:31.719Z,11.00
2023-01-19T02:25:58.846Z,10.10
2023-01-19T02:28:26.257Z,11.10
2023-01-19T02:30:53.013Z,12.20
2023-01-19T02:33:19.854Z,12.00
2023-01-19T02:35:46.678Z,10.40
2023-01-19T02:38:13.760Z,10.90
2023-01-19T02:40:40.460Z,10.60
2023-01-19T02:43:07.142Z,10.40
2023-01-19T02:45:33.843Z,9.30
2023-01-19T02:48:00.551Z,8.30
2023-01-19T02:50:49.974Z,8.50
2023-01-19T02:53:36.674Z,10.20
2023-01-19T02:56:28.639Z,9.40
2023-01-19T02:59:15.987Z,9.50
2023-01-19T03:01:52.528Z,9.80
2023-01-19T03:04:32.708Z,9.50
2023-01-19T03:07:14.815Z,10.00
2023-01-19T03:09:43.448Z,8.50
2023-01-19T03:12:19.689Z,8.70
2023-01-19T03:14:46.685Z,8.30
2023-01-19T03:17:13.389Z,8.10
2023-01-19T03:19:41.299Z,8.30
2023-01-19T03:22:13.438Z,7.60
2023-01-19T03:24:42.094Z,8.80
2023-01-19T03:27:11.906Z,8.00
2023-01-19T03:29:38.763Z,9.30
2023-01-19T03:32:09.274Z,7.50
2023-01-19T03:34:36.176Z,8.40
2023-01-19T03:37:03.996Z,9.30
2023-01-19T03:39:30.916Z,8.10
2023-01-19T03:41:59.434Z,9.40
2023-01-19T03:44:26.446Z,8.90
2023-01-19T03:46:53.247Z,9.20
2023-01-19T03:49:19.957Z,8.60
2023-01-19T03:51:46.736Z,9.00
2023-01-19T03:54:13.430Z,8.60
2023-01-19T03:56:40.114Z,10.10
2023-01-19T03:59:07.563Z,9.70
2023-01-19T04:01:34.401Z,11.00
2023-01-19T04:04:01.232Z,9.90
2023-01-19T04:06:28.450Z,10.20
2023-01-19T04:08:55.137Z,10.50
2023-01-19T04:11:21.841Z,11.20
2023-01-19T04:13:48.557Z,9.80
2023-01-19T04:16:20.056Z,9.80
2023-01-19T04:18:46.964Z,10.50
2023-01-19T04:21:13.654Z,10.20
2023-01-19T04:23:40.346Z,10.20
2023-01-19T04:26:08.000Z,10.50
2023-01-19T04:28:35.296Z,9.30
2023-01-19T04:31:02.040Z,9.70
2023-01-19T04:33:29.105Z,8.80
2023-01-19T04:35:56.314Z,9.10
2023-01-19T04:38:24.167Z,8.90
2023-01-19T04:40:51.260Z,10.00
2023-01-19T04:43:18.656Z,11.00
2023-01-19T04:45:46.282Z,11.30
2023-01-19T04:48:13.694Z,10.50
2023-01-19T04:50:41.717Z,10.20
2023-01-19T04:53:08.649Z,11.30
2023-01-19T04:55:35.329Z,9.90
2023-01-19T04:58:02.058Z,10.50
2023-01-19T05:00:28.688Z,10.90
2023-01-19T05:02:55.380Z,9.30
2023-01-19T05:05:22.117Z,10.80
2023-01-19T05:07:48.781Z,10.60
2023-01-19T05:10:15.997Z,11.00
2023-01-19T05:12:42.734Z,11.00
2023-01-19T05:15:10.195Z,9.30
2023-01-19T05:17:36.979Z,9.10
2023-01-19T05:20:04.299Z,10.30
2023-01-19T05:22:31.097Z,10.30
2023-01-19T05:24:58.382Z,10.30
2023-01-19T05:27:25.024Z,11.10
2023-01-19T05:29:52.050Z,11.70
2023-01-19T05:32:18.785Z,10.20
2023-01-19T05:34:45.441Z,9.60
2023-01-19T05:37:12.200Z,8.00
2023-01-19T05:39:38.938Z,7.70
2023-01-19T05:42:05.760Z,6.80
2023-01-19T05:44:32.418Z,6.60
2023-01-19T05:46:59.220Z,6.30
2023-01-19T05:49:25.898Z,5.60
2023-01-19T05:51:52.547Z,7.50
2023-01-19T05:54:19.294Z,7.20
2023-01-19T05:56:46.052Z,9.20
2023-01-19T05:59:12.787Z,7.00
2023-01-19T06:01:40.290Z,9.20
2023-01-19T06:04:07.297Z,11.30
2023-01-19T06:06:33.970Z,13.40
2023-01-19T06:09:00.638Z,10.30
2023-01-19T06:11:27.332Z,12.40
2023-01-19T06:13:54.032Z,12.30
2023-01-19T06:16:20.762Z,12.00
2023-01-19T06:18:47.417Z,11.20
2023-01-19T06:21:14.428Z,12.50
2023-01-19T06:23:41.249Z,14.00
2023-01-19T06:26:07.977Z,16.20
2023-01-19T06:28:34.772Z,15.00
2023-01-19T06:31:01.558Z,11.80
2023-01-19T06:33:28.674Z,11.60
2023-01-19T06:35:55.551Z,11.90
2023-01-19T06:38:22.268Z,12.70
2023-01-19T06:40:58.279Z,12.10
2023-01-19T06:43:25.353Z,13.90
2023-01-19T06:45:52.227Z,15.30
2023-01-19T06:48:19.123Z,14.60
2023-01-19T06:50:45.987Z,14.40
2023-01-19T06:53:12.890Z,13.10
2023-01-19T06:55:39.602Z,14.40
2023-01-19T06:58:06.585Z,21.00
2023-01-19T07:00:33.275Z,22.60
2023-01-19T07:03:00.817Z,21.60
2023-01-19T07:05:27.906Z,21.60
2023-01-19T07:07:55.222Z,21.40
2023-01-19T07:10:22.128Z,22.90
2023-01-19T07:12:48.797Z,23.10
2023-01-19T07:15:16.290Z,24.70
2023-01-19T07:17:43.531Z,24.00
2023-01-19T07:20:13.066Z,22.10
2023-01-19T07:22:41.298Z,21.90
2023-01-19T07:25:08.309Z,19.70
2023-01-19T07:27:34.955Z,15.90
2023-01-19T07:30:01.663Z,13.70
2023-01-19T07:32:28.787Z,14.30
2023-01-19T07:34:55.466Z,14.40
2023-01-19T07:37:22.221Z,10.90
2023-01-19T07:39:48.882Z,11.10
2023-01-19T07:42:15.598Z,10.00
2023-01-19T07:44:42.307Z,10.30
2023-01-19T07:47:12.526Z,12.10
2023-01-19T07:49:39.672Z,13.00
2023-01-19T07:52:06.403Z,12.70
2023-01-19T07:54:33.261Z,12.30
2023-01-19T07:57:00.857Z,10.30
2023-01-19T07:59:31.161Z,11.30
2023-01-19T08:01:59.560Z,9.30
2023-01-19T08:04:29.433Z,10.00
2023-01-19T08:06:56.172Z,8.40
2023-01-19T08:09:23.892Z,9.40
2023-01-19T08:11:50.588Z,8.10
2023-01-19T08:14:17.436Z,7.30
2023-01-19T08:16:44.194Z,11.00
2023-01-19T08:19:10.908Z,8.30
2023-01-19T08:21:38.946Z,8.00
2023-01-19T08:24:06.061Z,9.10
2023-01-19T08:26:34.493Z,8.90
2023-01-19T08:29:03.053Z,8.50
2023-01-19T08:31:29.890Z,9.50
2023-01-19T08:33:56.734Z,9.60
2023-01-19T08:36:25.030Z,9.30
2023-01-19T08:38:51.910Z,9.10
2023-01-19T08:41:18.651Z,8.70
2023-01-19T08:43:45.532Z,7.70
2023-01-19T08:46:12.509Z,9.50
2023-01-19T08:48:40.080Z,7.50
2023-01-19T08:51:06.837Z,8.60
2023-01-19T08:53:34.196Z,8.80
2023-01-19T08:56:01.345Z,9.90
2023-01-19T08:58:28.388Z,10.20
2023-01-19T09:00:55.185Z,11.50
2023-01-19T09:03:22.821Z,10.50
2023-01-19T09:05:49.755Z,10.80
2023-01-19T09:08:16.579Z,11.10
2023-01-19T09:10:48.011Z,11.10
2023-01-19T09:13:14.936Z,10.90
2023-01-19T09:15:43.173Z,11.20
2023-01-19T09:18:13.550Z,11.90
2023-01-19T09:20:44.339Z,10.90
2023-01-19T09:23:12.261Z,12.20
2023-01-19T09:25:39.504Z,11.50
2023-01-19T09:28:07.709Z,11.60
2023-01-19T09:30:36.718Z,10.80
2023-01-19T09:33:06.341Z,11.40
2023-01-19T09:35:33.858Z,10.90
2023-01-19T09:38:01.041Z,11.20
2023-01-19T09:40:28.560Z,11.10
2023-01-19T09:43:01.269Z,10.50
2023-01-19T09:45:42.724Z,10.90
2023-01-19T09:48:35.748Z,10.40
2023-01-19T09:51:03.771Z,10.70
2023-01-19T09:53:40.294Z,10.70
2023-01-19T09:56:15.354Z,9.80
2023-01-19T09:58:42.159Z,11.00
2023-01-19T10:01:36.463Z,10.80
2023-01-19T10:06:49.520Z,10.80
2023-01-19T10:09:25.198Z,11.10
2023-01-19T10:11:55.387Z,10.60
2023-01-19T10:14:44.610Z,10.70
2023-01-19T10:17:20.385Z,10.90
2023-01-19T10:19:49.489Z,10.10
2023-01-19T10:22:26.889Z,10.70
2023-01-19T10:24:55.848Z,10.40
2023-01-19T10:27:24.987Z,11.50
2023-01-19T10:29:51.832Z,10.40
2023-01-19T10:32:34.257Z,10.70
2023-01-19T10:35:01.058Z,11.50
2023-01-19T10:37:32.495Z,11.00
2023-01-19T10:40:02.667Z,12.20
2023-01-19T10:42:30.921Z,11.70
2023-01-19T10:44:57.902Z,10.90
2023-01-19T10:47:30.573Z,10.70
2023-01-19T10:49:57.363Z,10.20
2023-01-19T10:52:35.532Z,10.70
2023-01-19T10:55:03.037Z,10.70
2023-01-19T10:57:32.614Z,10.70
2023-01-19T10:59:59.422Z,10.80
2023-01-19T11:02:28.036Z,10.20
2023-01-19T11:04:59.280Z,10.30
2023-01-19T11:07:27.023Z,9.90
2023-01-19T11:10:12.626Z,10.20
2023-01-19T11:13:01.687Z,10.50
2023-01-19T11:15:41.025Z,9.70
2023-01-19T11:18:07.896Z,10.20
2023-01-19T11:20:49.747Z,10.60
2023-01-19T11:23:28.636Z,10.50
2023-01-19T11:26:01.296Z,11.10
2023-01-19T11:28:36.713Z,10.20
2023-01-19T11:31:18.538Z,10.00
2023-01-19T11:33:50.831Z,9.20
2023-01-19T11:36:22.917Z,10.60
2023-01-19T11:38:53.488Z,9.70
2023-01-19T11:41:29.652Z,10.20
2023-01-19T11:44:12.085Z,10.10
2023-01-19T11:46:43.486Z,10.40
2023-01-19T11:49:25.887Z,9.50
2023-01-19T11:52:00.169Z,9.70
2023-01-19T11:55:03.642Z,10.40
2023-01-19T11:57:33.990Z,9.10
2023-01-19T12:00:05.653Z,9.20
2023-01-19T12:02:45.168Z,8.10
2023-01-19T12:05:16.966Z,10.10
2023-01-19T12:07:46.103Z,10.00
2023-01-19T12:10:33.206Z,10.00
2023-01-19T12:13:02.470Z,9.70
2023-01-19T12:15:43.056Z,10.40
2023-01-19T12:18:41.238Z,11.10
2023-01-19T12:21:10.668Z,10.90
2023-01-19T12:23:53.649Z,11.60
2023-01-19T12:26:57.608Z,11.00
2023-01-19T12:32:18.196Z,10.50
2023-01-19T12:34:51.914Z,9.80
2023-01-19T12:37:35.692Z,12.10
2023-01-19T12:50:24.158Z,11.10
2023-01-19T12:52:58.708Z,10.40
2023-01-19T12:55:27.807Z,12.10
2023-01-19T12:58:08.080Z,11.80
2023-01-19T13:00:39.471Z,11.00
2023-01-19T13:03:32.363Z,11.50
2023-01-19T13:05:59.280Z,11.90
2023-01-19T13:08:29.850Z,11.80
2023-01-19T13:10:59.848Z,10.30
2023-01-19T13:13:29.565Z,11.80
2023-01-19T13:15:57.331Z,10.30
2023-01-19T13:18:25.361Z,11.10
2023-01-19T13:21:02.560Z,12.60
2023-01-19T13:23:50.016Z,12.90
2023-01-19T13:26:21.100Z,13.50
2023-01-19T13:28:53.445Z,11.80
2023-01-19T13:31:20.301Z,11.50
2023-01-19T13:33:52.789Z,12.00
2023-01-19T13:36:26.984Z,9.40
2023-01-19T13:38:54.091Z,12.00
2023-01-19T13:41:25.734Z,11.50
2023-01-19T13:43:58.816Z,12.20
2023-01-19T13:46:26.454Z,10.70
2023-01-19T13:49:01.611Z,12.50
2023-01-19T13:51:28.397Z,12.00
2023-01-19T13:53:58.989Z,10.50
2023-01-19T13:56:28.541Z,10.90
2023-01-19T13:59:10.047Z,11.80
2023-01-19T14:01:38.489Z,12.10
2023-01-19T14:04:05.511Z,11.20
2023-01-19T14:06:40.542Z,13.50
2023-01-19T14:09:16.612Z,13.70
2023-01-19T14:12:03.681Z,13.30
2023-01-19T14:14:30.419Z,12.60
2023-01-19T14:16:57.098Z,13.60
2023-01-19T14:19:23.839Z,13.40
2023-01-19T14:22:04.056Z,14.90
2023-01-19T14:24:33.389Z,12.90
2023-01-19T14:27:19.436Z,13.40
2023-01-19T14:29:47.611Z,12.30
2023-01-19T14:32:24.202Z,12.10
2023-01-19T14:34:53.780Z,12.70
2023-01-19T14:37:25.848Z,13.70
2023-01-19T14:40:01.952Z,12.90
2023-01-19T14:42:29.929Z,12.70
2023-01-19T14:44:57.416Z,12.50
2023-01-19T14:47:29.662Z,12.90
2023-01-19T14:50:00.344Z,13.60
2023-01-19T14:52:30.759Z,13.20
2023-01-19T14:54:57.474Z,13.90
2023-01-19T14:57:24.169Z,12.30
2023-01-19T14:59:50.938Z,13.60
2023-01-19T15:02:21.531Z,13.90
2023-01-19T15:04:48.281Z,14.30
2023-01-19T15:07:22.526Z,15.10
2023-01-19T15:09:49.239Z,14.70
2023-01-19T15:12:17.473Z,15.50
2023-01-19T15:14:45.076Z,15.20
2023-01-19T15:17:25.487Z,13.80
2023-01-19T15:19:55.512Z,16.00
2023-01-19T15:22:22.827Z,14.10
2023-01-19T15:24:49.853Z,14.10
2023-01-19T15:27:16.950Z,15.60
2023-01-19T15:29:43.748Z,14.50
2023-01-19T15:32:14.262Z,13.70
2023-01-19T15:34:41.500Z,14.00
2023-01-19T15:37:08.358Z,14.30
2023-01-19T15:39:35.512Z,14.10
2023-01-19T15:42:02.353Z,13.70
2023-01-19T15:44:29.695Z,14.00
2023-01-19T15:46:57.502Z,14.20
2023-01-19T15:49:24.317Z,13.60
2023-01-19T15:51:51.081Z,15.10
2023-01-19T15:54:18.219Z,16.90
2023-01-19T15:56:45.092Z,14.00
2023-01-19T15:59:11.790Z,14.50
2023-01-19T16:01:38.554Z,14.60
2023-01-19T16:04:06.419Z,14.70
2023-01-19T16:06:33.544Z,13.70
2023-01-19T16:09:01.545Z,13.60
2023-01-19T16:11:29.884Z,13.60
2023-01-19T16:13:56.688Z,14.20
2023-01-19T16:16:24.526Z,12.80
2023-01-19T16:18:51.390Z,13.40
2023-01-19T16:21:18.099Z,13.30
2023-01-19T16:23:44.791Z,14.30
2023-01-19T16:26:24.869Z,15.70
2023-01-19T16:28:51.560Z,13.30
2023-01-19T16:31:18.390Z,13.10
2023-01-19T16:33:45.344Z,12.60
2023-01-19T16:36:20.171Z,12.40
2023-01-19T16:38:46.875Z,11.70
2023-01-19T16:41:13.627Z,12.00
2023-01-19T16:43:40.431Z,10.30
2023-01-19T16:46:07.165Z,11.30
2023-01-19T16:48:34.028Z,11.90
2023-01-19T16:51:05.248Z,11.70
2023-01-19T16:53:34.950Z,11.50
2023-01-19T16:56:08.497Z,10.40
2023-01-19T16:58:37.510Z,10.30
2023-01-19T17:01:12.497Z,11.00
2023-01-19T17:03:39.670Z,12.10
2023-01-19T17:06:07.294Z,12.00
2023-01-19T17:08:34.812Z,12.20
2023-01-19T17:11:04.931Z,12.50
2023-01-19T17:13:31.983Z,12.80
2023-01-19T17:16:00.767Z,12.20
2023-01-19T17:18:31.117Z,13.10
2023-01-19T17:21:02.887Z,13.00
2023-01-19T17:23:30.106Z,12.90
2023-01-19T17:25:57.991Z,12.50
2023-01-19T17:28:25.431Z,12.80
2023-01-19T17:30:52.649Z,13.40
2023-01-19T17:33:20.755Z,12.60
2023-01-19T17:35:47.471Z,12.60
2023-01-19T17:38:14.265Z,12.40
2023-01-19T17:40:41.283Z,11.70
2023-01-19T17:43:08.070Z,10.60
2023-01-19T17:45:36.306Z,12.40
2023-01-19T17:48:04.385Z,11.40
2023-01-19T17:50:32.758Z,11.60
2023-01-19T17:52:59.495Z,11.10
2023-01-19T17:55:26.444Z,12.20
2023-01-19T17:57:53.390Z,11.30
2023-01-19T18:00:20.690Z,11.40
2023-01-19T18:02:51.911Z,11.50
2023-01-19T18:05:19.299Z,10.70
2023-01-19T18:07:47.215Z,10.90
2023-01-19T18:10:14.507Z,9.90
2023-01-19T18:12:41.618Z,9.70
2023-01-19T18:15:09.079Z,10.80
2023-01-19T18:17:36.156Z,10.20
2023-01-19T18:20:03.480Z,11.60
2023-01-19T18:22:30.528Z,10.90
2023-01-19T18:24:57.471Z,10.90
2023-01-19T18:27:24.430Z,11.10
2023-01-19T18:29:51.378Z,10.80
2023-01-19T18:32:18.292Z,10.90
2023-01-19T18:34:45.254Z,10.50
2023-01-19T18:37:11.991Z,10.00
2023-01-19T18:39:38.770Z,10.60
2023-01-19T18:42:05.685Z,10.20
2023-01-19T18:44:32.485Z,11.10
2023-01-19T18:46:59.223Z,9.70
2023-01-19T18:49:26.008Z,9.70
2023-01-19T18:51:52.770Z,9.50
2023-01-19T18:54:20.220Z,10.30
2023-01-19T18:56:49.306Z,11.80
2023-01-19T18:59:16.044Z,10.40
2023-01-19T19:01:43.064Z,11.20
2023-01-19T19:04:10.257Z,10.60
2023-01-19T19:06:37.291Z,9.70
2023-01-19T19:09:04.392Z,9.80
2023-01-19T19:11:31.167Z,9.70
2023-01-19T19:14:00.589Z,10.00
2023-01-19T19:16:27.453Z,10.60
2023-01-19T19:18:54.215Z,11.50
2023-01-19T19:21:21.770Z,9.30
2023-01-19T19:23:53.101Z,9.30
2023-01-19T19:26:19.881Z,8.20
2023-01-19T19:28:47.790Z,9.00
2023-01-19T19:31:16.952Z,8.70
2023-01-19T19:33:44.141Z,9.00
2023-01-19T19:36:11.897Z,8.30
2023-01-19T19:38:41.373Z,8.40
2023-01-19T19:41:09.383Z,7.20
2023-01-19T19:43:36.737Z,7.40
2023-01-19T19:46:05.787Z,8.50
2023-01-19T19:48:32.750Z,9.80
2023-01-19T19:51:28.914Z,10.30
2023-01-19T19:53:57.093Z,8.60
2023-01-19T19:56:24.357Z,10.10
2023-01-19T19:58:51.378Z,8.60
2023-01-19T20:01:25.925Z,9.90
2023-01-19T20:03:53.792Z,9.30
2023-01-19T20:06:22.859Z,8.80
2023-01-19T20:08:50.195Z,9.10
2023-01-19T20:11:19.017Z,9.10
2023-01-19T20:13:47.910Z,9.40
2023-01-19T20:16:19.316Z,9.40
2023-01-19T20:18:48.861Z,9.90
2023-01-19T20:21:20.583Z,10.90
2023-01-19T20:23:47.710Z,8.60
2023-01-19T20:26:15.713Z,8.10
2023-01-19T20:28:42.808Z,8.70
2023-01-19T20:31:10.654Z,8.70
2023-01-19T20:33:37.555Z,9.10
2023-01-19T20:36:04.956Z,9.00
2023-01-19T20:38:32.163Z,9.20
2023-01-19T20:40:59.041Z,9.80
2023-01-19T20:43:26.007Z,9.70
2023-01-19T20:45:52.925Z,10.10
2023-01-19T20:48:19.675Z,10.60
2023-01-19T20:50:46.383Z,9.10
2023-01-19T20:53:13.073Z,10.60
2023-01-19T20:55:40.024Z,10.70
2023-01-19T20:58:06.853Z,11.50
2023-01-19T21:00:35.015Z,12.90
2023-01-19T21:03:02.099Z,11.90
2023-01-19T21:05:29.040Z,11.40
2023-01-19T21:07:55.778Z,11.50
2023-01-19T21:10:22.690Z,10.80
2023-01-19T21:12:49.482Z,11.80
2023-01-19T21:15:16.419Z,9.90
2023-01-19T21:17:45.110Z,10.10
2023-01-19T21:20:12.446Z,10.60
2023-01-19T21:22:39.452Z,8.50
2023-01-19T21:25:07.679Z,10.30
2023-01-19T21:27:34.375Z,8.90
2023-01-19T21:30:02.687Z,9.70
2023-01-19T21:32:29.513Z,10.20
2023-01-19T21:34:56.477Z,8.40
2023-01-19T21:37:23.209Z,9.60
2023-01-19T21:39:50.170Z,9.90
2023-01-19T21:42:17.111Z,11.50
2023-01-19T21:44:44.056Z,9.90
2023-01-19T21:47:12.053Z,10.80
2023-01-19T21:49:38.754Z,10.50
2023-01-19T21:52:05.626Z,10.40
2023-01-19T21:54:32.555Z,10.20
2023-01-19T21:57:01.276Z,10.70
2023-01-19T21:59:28.393Z,9.70
2023-01-19T22:01:55.143Z,11.30
2023-01-19T22:04:22.000Z,9.70
2023-01-19T22:06:48.722Z,10.40
2023-01-19T22:09:15.419Z,10.70
2023-01-19T22:11:42.180Z,10.30
2023-01-19T22:14:08.902Z,10.20
2023-01-19T22:16:35.756Z,11.30
2023-01-19T22:19:02.863Z,10.40
2023-01-19T22:21:35.128Z,11.00
2023-01-19T22:24:02.567Z,10.30
2023-01-19T22:26:30.051Z,10.40
2023-01-19T22:28:59.187Z,12.20
2023-01-19T22:31:26.636Z,10.90
2023-01-19T22:33:53.727Z,11.70
2023-01-19T22:36:22.503Z,12.80
2023-01-19T22:38:55.404Z,13.20
2023-01-19T22:41:27.058Z,11.00
2023-01-19T22:43:55.329Z,11.70
2023-01-19T22:46:23.869Z,10.50
2023-01-19T22:48:50.855Z,11.90
2023-01-19T22:51:17.770Z,11.10
2023-01-19T22:53:44.962Z,10.40
2023-01-19T22:56:16.188Z,10.40
2023-01-19T22:58:45.747Z,11.70
2023-01-19T23:01:13.986Z,11.40
2023-01-19T23:03:40.897Z,11.00
2023-01-19T23:06:12.509Z,12.00
2023-01-19T23:08:39.716Z,11.90
2023-01-19T23:11:17.772Z,11.70
2023-01-19T23:13:44.623Z,12.70
2023-01-19T23:16:12.459Z,10.60
2023-01-19T23:18:39.668Z,10.60
2023-01-19T23:21:08.405Z,12.20
2023-01-19T23:23:35.416Z,11.20
2023-01-19T23:26:03.742Z,12.30
2023-01-19T23:28:31.166Z,11.50
2023-01-19T23:30:57.948Z,11.40
2023-01-19T23:33:24.798Z,12.20
2023-01-19T23:35:51.632Z,9.90
2023-01-19T23:38:18.391Z,10.80
2023-01-19T23:40:45.128Z,11.50
2023-01-19T23:43:12.043Z,10.90
2023-01-19T23:45:38.765Z,12.40
2023-01-19T23:48:05.680Z,10.70
2023-01-19T23:50:32.469Z,11.70
2023-01-19T23:52:59.237Z,11.20
2023-01-19T23:55:27.386Z,12.10
2023-01-19T23:57:54.090Z,11.20
